sensor_id;sensor_type;location;lat;lon;timestamp;pressure;altitude;pressure_sealevel;temperature;humidity
49529;BME280;35423;37.320;-121.762;2023-03-14T00:02:02;100010.53;;;28.73;22.50
49529;BME280;35423;37.320;-121.762;2023-03-14T00:04:27;100002.88;;;28.65;22.63
49529;BME280;35423;37.320;-121.762;2023-03-14T00:06:56;100003.29;;;28.49;22.78
49529;BME280;35423;37.320;-121.762;2023-03-14T00:09:22;100007.06;;;28.35;23.04
49529;BME280;35423;37.320;-121.762;2023-03-14T00:11:47;100004.73;;;28.53;23.03
49529;BME280;35423;37.320;-121.762;2023-03-14T00:14:18;100007.42;;;28.32;23.21
49529;BME280;35423;37.320;-121.762;2023-03-14T00:16:48;100010.75;;;28.05;23.45
49529;BME280;35423;37.320;-121.762;2023-03-14T00:19:10;100012.06;;;27.82;23.58
49529;BME280;35423;37.320;-121.762;2023-03-14T00:21:38;100008.83;;;27.62;23.75
49529;BME280;35423;37.320;-121.762;2023-03-14T00:24:19;100010.16;;;27.66;23.90
49529;BME280;35423;37.320;-121.762;2023-03-14T00:26:47;100008.37;;;27.45;24.20
49529;BME280;35423;37.320;-121.762;2023-03-14T00:29:18;100009.85;;;27.57;24.44
49529;BME280;35423;37.320;-121.762;2023-03-14T00:31:44;100008.78;;;27.18;24.43
49529;BME280;35423;37.320;-121.762;2023-03-14T00:34:10;100001.22;;;27.64;24.42
49529;BME280;35423;37.320;-121.762;2023-03-14T00:36:46;99989.68;;;27.50;24.25
49529;BME280;35423;37.320;-121.762;2023-03-14T00:39:12;99987.55;;;27.25;24.38
49529;BME280;35423;37.320;-121.762;2023-03-14T00:41:38;99985.46;;;27.48;24.38
49529;BME280;35423;37.320;-121.762;2023-03-14T00:44:06;99980.17;;;27.23;24.43
49529;BME280;35423;37.320;-121.762;2023-03-14T00:46:30;99979.55;;;27.06;24.47
49529;BME280;35423;37.320;-121.762;2023-03-14T00:48:55;99976.14;;;27.14;24.56
49529;BME280;35423;37.320;-121.762;2023-03-14T00:51:27;99979.07;;;26.80;24.79
49529;BME280;35423;37.320;-121.762;2023-03-14T00:53:51;99976.18;;;27.04;24.95
49529;BME280;35423;37.320;-121.762;2023-03-14T00:56:19;99971.56;;;26.98;25.08
49529;BME280;35423;37.320;-121.762;2023-03-14T00:58:46;99973.97;;;26.78;25.11
49529;BME280;35423;37.320;-121.762;2023-03-14T01:01:17;99977.39;;;26.83;25.33
49529;BME280;35423;37.320;-121.762;2023-03-14T01:03:50;99979.81;;;26.94;25.38
49529;BME280;35423;37.320;-121.762;2023-03-14T01:06:12;99979.06;;;26.65;25.39
49529;BME280;35423;37.320;-121.762;2023-03-14T01:08:32;99979.55;;;26.50;25.48
49529;BME280;35423;37.320;-121.762;2023-03-14T01:11:15;99987.61;;;26.70;25.51
49529;BME280;35423;37.320;-121.762;2023-03-14T01:13:43;99995.42;;;26.59;25.58
49529;BME280;35423;37.320;-121.762;2023-03-14T01:16:11;100005.34;;;26.48;25.78
49529;BME280;35423;37.320;-121.762;2023-03-14T01:18:36;100015.05;;;26.34;25.89
49529;BME280;35423;37.320;-121.762;2023-03-14T01:21:02;100019.29;;;26.28;26.05
49529;BME280;35423;37.320;-121.762;2023-03-14T01:23:33;100019.70;;;26.57;26.15
49529;BME280;35423;37.320;-121.762;2023-03-14T01:26:10;100030.99;;;26.18;26.41
49529;BME280;35423;37.320;-121.762;2023-03-14T01:28:38;100027.10;;;25.79;26.53
49529;BME280;35423;37.320;-121.762;2023-03-14T01:31:11;100033.63;;;26.16;26.64
49529;BME280;35423;37.320;-121.762;2023-03-14T01:33:45;100038.21;;;26.12;26.66
49529;BME280;35423;37.320;-121.762;2023-03-14T01:36:11;100041.12;;;25.90;26.72
49529;BME280;35423;37.320;-121.762;2023-03-14T01:38:37;100045.67;;;26.18;26.69
49529;BME280;35423;37.320;-121.762;2023-03-14T01:41:03;100043.33;;;25.65;26.81
49529;BME280;35423;37.320;-121.762;2023-03-14T01:43:33;100036.24;;;25.84;26.96
49529;BME280;35423;37.320;-121.762;2023-03-14T01:48:31;100026.35;;;25.85;27.20
49529;BME280;35423;37.320;-121.762;2023-03-14T01:50:58;100031.63;;;25.89;27.29
49529;BME280;35423;37.320;-121.762;2023-03-14T01:53:26;100031.33;;;25.73;27.43
49529;BME280;35423;37.320;-121.762;2023-03-14T01:55:53;100024.26;;;25.56;27.67
49529;BME280;35423;37.320;-121.762;2023-03-14T01:58:18;100023.81;;;25.42;27.73
49529;BME280;35423;37.320;-121.762;2023-03-14T02:00:45;100021.08;;;25.35;27.83
49529;BME280;35423;37.320;-121.762;2023-03-14T02:03:21;100019.37;;;25.33;27.98
49529;BME280;35423;37.320;-121.762;2023-03-14T02:05:46;100021.86;;;25.14;28.01
49529;BME280;35423;37.320;-121.762;2023-03-14T02:08:14;100019.36;;;25.31;28.08
49529;BME280;35423;37.320;-121.762;2023-03-14T02:10:42;100022.38;;;25.21;28.20
49529;BME280;35423;37.320;-121.762;2023-03-14T02:13:05;100016.69;;;25.07;28.23
49529;BME280;35423;37.320;-121.762;2023-03-14T02:15:32;100007.73;;;25.03;28.36
49529;BME280;35423;37.320;-121.762;2023-03-14T02:18:04;100006.23;;;25.04;28.31
49529;BME280;35423;37.320;-121.762;2023-03-14T02:20:32;100000.21;;;25.03;28.38
49529;BME280;35423;37.320;-121.762;2023-03-14T02:23:02;99989.83;;;24.95;28.30
49529;BME280;35423;37.320;-121.762;2023-03-14T02:25:39;99990.51;;;24.78;28.49
49529;BME280;35423;37.320;-121.762;2023-03-14T02:28:04;99991.34;;;24.74;28.61
49529;BME280;35423;37.320;-121.762;2023-03-14T02:30:38;99989.58;;;24.55;28.60
49529;BME280;35423;37.320;-121.762;2023-03-14T02:33:06;99993.26;;;24.78;28.58
49529;BME280;35423;37.320;-121.762;2023-03-14T02:35:34;99985.57;;;24.99;28.71
49529;BME280;35423;37.320;-121.762;2023-03-14T02:38:00;99983.61;;;24.65;28.64
49529;BME280;35423;37.320;-121.762;2023-03-14T02:40:23;99984.27;;;25.05;28.67
49529;BME280;35423;37.320;-121.762;2023-03-14T02:42:48;99989.42;;;24.45;28.74
49529;BME280;35423;37.320;-121.762;2023-03-14T02:47:44;99985.17;;;24.30;28.83
49529;BME280;35423;37.320;-121.762;2023-03-14T02:50:13;99977.12;;;24.55;28.85
49529;BME280;35423;37.320;-121.762;2023-03-14T02:52:32;99969.61;;;24.55;28.80
49529;BME280;35423;37.320;-121.762;2023-03-14T02:54:58;99969.93;;;24.49;28.82
49529;BME280;35423;37.320;-121.762;2023-03-14T02:57:24;99977.28;;;24.52;28.83
49529;BME280;35423;37.320;-121.762;2023-03-14T02:59:50;99978.77;;;24.27;28.85
49529;BME280;35423;37.320;-121.762;2023-03-14T03:02:16;99980.83;;;24.56;28.83
49529;BME280;35423;37.320;-121.762;2023-03-14T03:04:45;99972.41;;;24.33;28.82
49529;BME280;35423;37.320;-121.762;2023-03-14T03:07:10;99977.45;;;24.55;28.86
49529;BME280;35423;37.320;-121.762;2023-03-14T03:09:38;99975.23;;;24.22;28.91
49529;BME280;35423;37.320;-121.762;2023-03-14T03:12:05;99978.75;;;24.42;28.97
49529;BME280;35423;37.320;-121.762;2023-03-14T03:14:37;99977.40;;;24.06;29.13
49529;BME280;35423;37.320;-121.762;2023-03-14T03:17:03;99972.78;;;24.09;29.25
49529;BME280;35423;37.320;-121.762;2023-03-14T03:19:31;99968.37;;;24.30;29.31
49529;BME280;35423;37.320;-121.762;2023-03-14T03:21:57;99972.89;;;24.51;29.43
49529;BME280;35423;37.320;-121.762;2023-03-14T03:24:23;99976.99;;;24.23;29.41
49529;BME280;35423;37.320;-121.762;2023-03-14T03:26:48;99978.35;;;24.38;29.33
49529;BME280;35423;37.320;-121.762;2023-03-14T03:29:15;99976.95;;;24.38;29.26
49529;BME280;35423;37.320;-121.762;2023-03-14T03:31:40;99979.63;;;24.36;29.01
49529;BME280;35423;37.320;-121.762;2023-03-14T03:34:06;99985.85;;;24.23;28.89
49529;BME280;35423;37.320;-121.762;2023-03-14T03:36:35;99984.76;;;24.20;28.97
49529;BME280;35423;37.320;-121.762;2023-03-14T03:39:04;99980.13;;;24.43;29.15
49529;BME280;35423;37.320;-121.762;2023-03-14T03:41:32;99982.43;;;24.12;29.10
49529;BME280;35423;37.320;-121.762;2023-03-14T03:43:59;99983.37;;;24.55;28.91
49529;BME280;35423;37.320;-121.762;2023-03-14T03:46:24;99990.52;;;24.09;28.90
49529;BME280;35423;37.320;-121.762;2023-03-14T03:48:53;99998.49;;;24.14;28.87
49529;BME280;35423;37.320;-121.762;2023-03-14T03:51:17;100003.14;;;23.83;29.01
49529;BME280;35423;37.320;-121.762;2023-03-14T03:53:44;100001.49;;;24.37;29.18
49529;BME280;35423;37.320;-121.762;2023-03-14T03:56:09;100002.03;;;24.35;29.15
49529;BME280;35423;37.320;-121.762;2023-03-14T03:58:37;100003.26;;;24.33;29.20
49529;BME280;35423;37.320;-121.762;2023-03-14T04:01:04;100003.35;;;24.26;29.19
49529;BME280;35423;37.320;-121.762;2023-03-14T04:03:29;100000.29;;;24.29;29.20
49529;BME280;35423;37.320;-121.762;2023-03-14T04:06:00;100003.47;;;24.04;29.18
49529;BME280;35423;37.320;-121.762;2023-03-14T04:08:31;100006.38;;;24.23;29.26
49529;BME280;35423;37.320;-121.762;2023-03-14T04:10:55;100005.08;;;24.24;29.32
49529;BME280;35423;37.320;-121.762;2023-03-14T04:13:19;100002.55;;;23.96;29.35
49529;BME280;35423;37.320;-121.762;2023-03-14T04:15:54;100004.23;;;24.16;29.29
49529;BME280;35423;37.320;-121.762;2023-03-14T04:18:20;100005.67;;;24.14;29.39
49529;BME280;35423;37.320;-121.762;2023-03-14T04:20:49;100003.35;;;24.12;29.47
49529;BME280;35423;37.320;-121.762;2023-03-14T04:23:11;100004.05;;;24.11;29.58
49529;BME280;35423;37.320;-121.762;2023-03-14T04:25:40;99995.50;;;24.13;29.70
49529;BME280;35423;37.320;-121.762;2023-03-14T04:28:08;99994.01;;;24.14;29.81
49529;BME280;35423;37.320;-121.762;2023-03-14T04:30:36;99993.45;;;24.16;29.77
49529;BME280;35423;37.320;-121.762;2023-03-14T04:33:03;99989.25;;;23.76;29.77
49529;BME280;35423;37.320;-121.762;2023-03-14T04:35:31;99992.17;;;24.19;29.67
49529;BME280;35423;37.320;-121.762;2023-03-14T04:38:00;99995.03;;;24.17;29.70
49529;BME280;35423;37.320;-121.762;2023-03-14T04:40:25;99994.33;;;23.95;29.70
49529;BME280;35423;37.320;-121.762;2023-03-14T04:42:51;99993.57;;;23.97;29.42
49529;BME280;35423;37.320;-121.762;2023-03-14T04:45:16;99994.96;;;24.18;29.20
49529;BME280;35423;37.320;-121.762;2023-03-14T04:47:42;99990.91;;;24.11;29.10
49529;BME280;35423;37.320;-121.762;2023-03-14T04:50:08;99992.01;;;24.08;29.17
49529;BME280;35423;37.320;-121.762;2023-03-14T04:52:34;99991.36;;;24.11;29.28
49529;BME280;35423;37.320;-121.762;2023-03-14T04:55:01;99994.96;;;24.10;29.16
49529;BME280;35423;37.320;-121.762;2023-03-14T04:57:30;99997.12;;;24.04;29.26
49529;BME280;35423;37.320;-121.762;2023-03-14T04:59:55;99988.69;;;24.01;29.29
49529;BME280;35423;37.320;-121.762;2023-03-14T05:02:19;99983.41;;;24.04;29.11
49529;BME280;35423;37.320;-121.762;2023-03-14T05:04:45;99984.90;;;23.99;29.11
49529;BME280;35423;37.320;-121.762;2023-03-14T05:07:10;99984.81;;;23.93;29.18
49529;BME280;35423;37.320;-121.762;2023-03-14T05:09:41;99974.76;;;24.05;29.04
49529;BME280;35423;37.320;-121.762;2023-03-14T05:12:12;99966.18;;;23.91;28.74
49529;BME280;35423;37.320;-121.762;2023-03-14T05:14:40;99963.36;;;23.63;28.98
49529;BME280;35423;37.320;-121.762;2023-03-14T05:17:06;99962.77;;;23.55;29.17
49529;BME280;35423;37.320;-121.762;2023-03-14T05:19:37;99963.65;;;23.78;29.21
49529;BME280;35423;37.320;-121.762;2023-03-14T05:22:05;99958.86;;;23.83;29.09
49529;BME280;35423;37.320;-121.762;2023-03-14T05:24:31;99953.66;;;23.53;28.99
49529;BME280;35423;37.320;-121.762;2023-03-14T05:27:08;99952.54;;;23.76;29.12
49529;BME280;35423;37.320;-121.762;2023-03-14T05:29:35;99946.17;;;23.70;29.21
49529;BME280;35423;37.320;-121.762;2023-03-14T05:32:01;99950.16;;;23.49;29.35
49529;BME280;35423;37.320;-121.762;2023-03-14T05:34:27;99951.07;;;23.48;29.43
49529;BME280;35423;37.320;-121.762;2023-03-14T05:36:54;99944.56;;;23.62;29.57
49529;BME280;35423;37.320;-121.762;2023-03-14T05:39:18;99936.09;;;23.54;29.55
49529;BME280;35423;37.320;-121.762;2023-03-14T05:41:44;99932.97;;;23.44;29.66
49529;BME280;35423;37.320;-121.762;2023-03-14T05:44:10;99931.33;;;23.16;29.57
49529;BME280;35423;37.320;-121.762;2023-03-14T05:46:35;99925.54;;;23.27;29.52
49529;BME280;35423;37.320;-121.762;2023-03-14T05:49:03;99914.57;;;23.45;29.50
49529;BME280;35423;37.320;-121.762;2023-03-14T05:51:29;99904.31;;;23.11;29.54
49529;BME280;35423;37.320;-121.762;2023-03-14T05:54:00;99901.16;;;23.21;29.78
49529;BME280;35423;37.320;-121.762;2023-03-14T05:56:32;99904.40;;;22.89;29.86
49529;BME280;35423;37.320;-121.762;2023-03-14T05:59:10;99902.89;;;23.14;29.90
49529;BME280;35423;37.320;-121.762;2023-03-14T06:01:36;99897.21;;;23.15;29.83
49529;BME280;35423;37.320;-121.762;2023-03-14T06:04:03;99897.09;;;22.89;29.82
49529;BME280;35423;37.320;-121.762;2023-03-14T06:06:32;99894.60;;;22.65;29.68
49529;BME280;35423;37.320;-121.762;2023-03-14T06:08:58;99894.56;;;23.13;29.71
49529;BME280;35423;37.320;-121.762;2023-03-14T06:11:23;99889.78;;;23.06;29.82
49529;BME280;35423;37.320;-121.762;2023-03-14T06:13:49;99883.11;;;22.99;29.81
49529;BME280;35423;37.320;-121.762;2023-03-14T06:16:15;99885.58;;;22.91;29.87
49529;BME280;35423;37.320;-121.762;2023-03-14T06:18:41;99887.94;;;22.92;29.92
49529;BME280;35423;37.320;-121.762;2023-03-14T06:21:12;99885.28;;;22.64;29.95
49529;BME280;35423;37.320;-121.762;2023-03-14T06:23:40;99885.38;;;22.85;30.00
49529;BME280;35423;37.320;-121.762;2023-03-14T06:26:07;99885.70;;;22.82;30.15
49529;BME280;35423;37.320;-121.762;2023-03-14T06:28:32;99883.97;;;22.78;30.23
49529;BME280;35423;37.320;-121.762;2023-03-14T06:30:59;99877.53;;;22.76;30.29
49529;BME280;35423;37.320;-121.762;2023-03-14T06:33:24;99871.97;;;22.72;30.34
49529;BME280;35423;37.320;-121.762;2023-03-14T06:35:50;99864.38;;;22.66;30.43
49529;BME280;35423;37.320;-121.762;2023-03-14T06:38:16;99854.30;;;22.61;30.51
49529;BME280;35423;37.320;-121.762;2023-03-14T06:40:42;99851.16;;;22.62;30.56
49529;BME280;35423;37.320;-121.762;2023-03-14T06:43:08;99847.13;;;22.39;30.58
49529;BME280;35423;37.320;-121.762;2023-03-14T06:45:36;99844.05;;;22.62;30.66
49529;BME280;35423;37.320;-121.762;2023-03-14T06:48:03;99838.89;;;22.60;30.72
49529;BME280;35423;37.320;-121.762;2023-03-14T06:50:30;99835.08;;;22.61;30.74
49529;BME280;35423;37.320;-121.762;2023-03-14T06:53:01;99830.38;;;22.61;30.76
49529;BME280;35423;37.320;-121.762;2023-03-14T06:55:27;99829.28;;;22.61;30.74
49529;BME280;35423;37.320;-121.762;2023-03-14T06:57:52;99827.50;;;22.57;30.83
49529;BME280;35423;37.320;-121.762;2023-03-14T07:00:18;99825.86;;;22.58;30.81
49529;BME280;35423;37.320;-121.762;2023-03-14T07:02:44;99829.07;;;22.62;30.63
49529;BME280;35423;37.320;-121.762;2023-03-14T07:05:11;99824.64;;;22.55;30.56
49529;BME280;35423;37.320;-121.762;2023-03-14T07:07:36;99817.29;;;22.60;30.48
49529;BME280;35423;37.320;-121.762;2023-03-14T07:10:02;99818.32;;;22.31;30.48
49529;BME280;35423;37.320;-121.762;2023-03-14T07:12:31;99815.03;;;22.80;30.44
49529;BME280;35423;37.320;-121.762;2023-03-14T07:14:56;99811.69;;;22.56;30.38
49529;BME280;35423;37.320;-121.762;2023-03-14T07:17:24;99815.66;;;22.56;30.43
49529;BME280;35423;37.320;-121.762;2023-03-14T07:19:53;99815.78;;;22.56;30.51
49529;BME280;35423;37.320;-121.762;2023-03-14T07:22:21;99810.40;;;22.73;30.51
49529;BME280;35423;37.320;-121.762;2023-03-14T07:24:48;99804.15;;;22.51;30.57
49529;BME280;35423;37.320;-121.762;2023-03-14T07:27:16;99800.86;;;22.54;30.60
49529;BME280;35423;37.320;-121.762;2023-03-14T07:29:41;99802.30;;;22.75;30.66
49529;BME280;35423;37.320;-121.762;2023-03-14T07:32:08;99798.86;;;22.47;30.73
49529;BME280;35423;37.320;-121.762;2023-03-14T07:34:35;99800.05;;;22.44;30.75
49529;BME280;35423;37.320;-121.762;2023-03-14T07:37:03;99792.02;;;22.67;30.67
49529;BME280;35423;37.320;-121.762;2023-03-14T07:39:34;99783.32;;;22.38;30.70
49529;BME280;35423;37.320;-121.762;2023-03-14T07:41:59;99779.56;;;22.35;30.69
49529;BME280;35423;37.320;-121.762;2023-03-14T07:44:27;99773.96;;;22.32;30.73
49529;BME280;35423;37.320;-121.762;2023-03-14T07:46:56;99765.92;;;22.51;30.81
49529;BME280;35423;37.320;-121.762;2023-03-14T07:49:27;99760.02;;;22.49;30.83
49529;BME280;35423;37.320;-121.762;2023-03-14T07:51:52;99757.03;;;22.47;30.86
49529;BME280;35423;37.320;-121.762;2023-03-14T07:54:19;99760.48;;;22.20;30.84
49529;BME280;35423;37.320;-121.762;2023-03-14T07:56:45;99757.47;;;22.43;30.88
49529;BME280;35423;37.320;-121.762;2023-03-14T07:59:13;99751.91;;;22.38;30.97
49529;BME280;35423;37.320;-121.762;2023-03-14T08:01:39;99746.82;;;22.36;31.00
49529;BME280;35423;37.320;-121.762;2023-03-14T08:04:04;99737.66;;;22.36;31.03
49529;BME280;35423;37.320;-121.762;2023-03-14T08:06:36;99728.92;;;22.56;31.04
49529;BME280;35423;37.320;-121.762;2023-03-14T08:09:06;99723.21;;;22.10;31.03
49529;BME280;35423;37.320;-121.762;2023-03-14T08:11:25;99712.50;;;22.29;31.13
49529;BME280;35423;37.320;-121.762;2023-03-14T08:13:52;99707.34;;;22.12;31.09
49529;BME280;35423;37.320;-121.762;2023-03-14T08:16:17;99703.38;;;22.41;31.13
49529;BME280;35423;37.320;-121.762;2023-03-14T08:18:43;99693.43;;;22.48;31.13
49529;BME280;35423;37.320;-121.762;2023-03-14T08:21:12;99690.29;;;22.62;31.18
49529;BME280;35423;37.320;-121.762;2023-03-14T08:23:42;99685.61;;;22.13;31.24
49529;BME280;35423;37.320;-121.762;2023-03-14T08:26:08;99689.30;;;22.38;31.21
49529;BME280;35423;37.320;-121.762;2023-03-14T08:28:38;99687.35;;;22.32;31.11
49529;BME280;35423;37.320;-121.762;2023-03-14T08:31:10;99685.50;;;22.50;31.12
49529;BME280;35423;37.320;-121.762;2023-03-14T08:33:37;99688.33;;;22.29;30.96
49529;BME280;35423;37.320;-121.762;2023-03-14T08:38:29;99686.29;;;22.26;31.08
49529;BME280;35423;37.320;-121.762;2023-03-14T08:40:58;99688.21;;;22.13;31.07
49529;BME280;35423;37.320;-121.762;2023-03-14T08:43:25;99686.03;;;22.12;31.18
49529;BME280;35423;37.320;-121.762;2023-03-14T08:45:51;99680.89;;;22.31;31.27
49529;BME280;35423;37.320;-121.762;2023-03-14T08:48:18;99678.91;;;22.30;31.26
49529;BME280;35423;37.320;-121.762;2023-03-14T08:50:47;99674.77;;;22.37;31.31
49529;BME280;35423;37.320;-121.762;2023-03-14T08:53:13;99674.87;;;22.56;31.38
49529;BME280;35423;37.320;-121.762;2023-03-14T08:55:39;99667.92;;;22.32;31.50
49529;BME280;35423;37.320;-121.762;2023-03-14T08:58:07;99665.52;;;22.28;31.56
49529;BME280;35423;37.320;-121.762;2023-03-14T09:00:35;99660.94;;;21.95;31.77
49529;BME280;35423;37.320;-121.762;2023-03-14T09:03:07;99655.36;;;21.96;31.79
49529;BME280;35423;37.320;-121.762;2023-03-14T09:05:28;99650.97;;;22.16;31.85
49529;BME280;35423;37.320;-121.762;2023-03-14T09:07:57;99648.22;;;22.21;31.76
49529;BME280;35423;37.320;-121.762;2023-03-14T09:10:23;99650.04;;;21.93;31.77
49529;BME280;35423;37.320;-121.762;2023-03-14T09:12:55;99654.29;;;21.91;31.87
49529;BME280;35423;37.320;-121.762;2023-03-14T09:15:17;99649.30;;;22.16;31.87
49529;BME280;35423;37.320;-121.762;2023-03-14T09:17:43;99646.33;;;22.16;31.99
49529;BME280;35423;37.320;-121.762;2023-03-14T09:20:12;99645.03;;;22.34;32.08
49529;BME280;35423;37.320;-121.762;2023-03-14T09:22:39;99636.79;;;22.05;32.23
49529;BME280;35423;37.320;-121.762;2023-03-14T09:25:15;99633.54;;;22.23;32.30
49529;BME280;35423;37.320;-121.762;2023-03-14T09:27:41;99629.48;;;22.16;32.43
49529;BME280;35423;37.320;-121.762;2023-03-14T09:30:09;99626.67;;;22.10;32.51
49529;BME280;35423;37.320;-121.762;2023-03-14T09:32:36;99623.11;;;22.08;32.51
49529;BME280;35423;37.320;-121.762;2023-03-14T09:35:04;99615.85;;;22.02;32.56
49529;BME280;35423;37.320;-121.762;2023-03-14T09:37:29;99611.71;;;22.07;32.52
49529;BME280;35423;37.320;-121.762;2023-03-14T09:39:54;99603.35;;;22.02;32.57
49529;BME280;35423;37.320;-121.762;2023-03-14T09:42:24;99597.51;;;21.90;32.67
49529;BME280;35423;37.320;-121.762;2023-03-14T09:44:53;99592.90;;;21.83;32.68
49529;BME280;35423;37.320;-121.762;2023-03-14T09:47:15;99587.04;;;21.81;32.75
49529;BME280;35423;37.320;-121.762;2023-03-14T09:49:47;99577.88;;;21.80;32.79
49529;BME280;35423;37.320;-121.762;2023-03-14T09:52:19;99577.61;;;21.58;32.75
49529;BME280;35423;37.320;-121.762;2023-03-14T09:54:49;99571.94;;;21.89;32.96
49529;BME280;35423;37.320;-121.762;2023-03-14T09:57:15;99569.62;;;21.89;33.01
49529;BME280;35423;37.320;-121.762;2023-03-14T09:59:44;99564.47;;;21.86;33.04
49529;BME280;35423;37.320;-121.762;2023-03-14T10:02:16;99562.40;;;21.57;33.05
49529;BME280;35423;37.320;-121.762;2023-03-14T10:04:31;99559.02;;;21.66;32.94
49529;BME280;35423;37.320;-121.762;2023-03-14T10:07:00;99550.04;;;21.84;32.99
49529;BME280;35423;37.320;-121.762;2023-03-14T10:09:25;99542.61;;;21.70;33.15
49529;BME280;35423;37.320;-121.762;2023-03-14T10:12:09;99538.73;;;21.68;33.22
49529;BME280;35423;37.320;-121.762;2023-03-14T10:14:35;99526.38;;;21.33;33.39
49529;BME280;35423;37.320;-121.762;2023-03-14T10:17:10;99524.06;;;21.52;33.64
49529;BME280;35423;37.320;-121.762;2023-03-14T10:19:34;99511.38;;;21.26;33.64
49529;BME280;35423;37.320;-121.762;2023-03-14T10:22:03;99500.18;;;21.27;33.67
49529;BME280;35423;37.320;-121.762;2023-03-14T10:24:30;99496.16;;;21.78;33.74
49529;BME280;35423;37.320;-121.762;2023-03-14T10:27:04;99484.32;;;21.58;33.74
49529;BME280;35423;37.320;-121.762;2023-03-14T10:29:27;99480.27;;;21.32;33.74
49529;BME280;35423;37.320;-121.762;2023-03-14T10:32:06;99474.12;;;21.39;33.47
49529;BME280;35423;37.320;-121.762;2023-03-14T10:34:28;99467.11;;;21.43;33.35
49529;BME280;35423;37.320;-121.762;2023-03-14T10:36:54;99464.34;;;21.47;33.25
49529;BME280;35423;37.320;-121.762;2023-03-14T10:39:24;99463.00;;;21.53;33.00
49529;BME280;35423;37.320;-121.762;2023-03-14T10:41:50;99467.92;;;21.54;32.84
49529;BME280;35423;37.320;-121.762;2023-03-14T10:44:16;99465.15;;;21.72;32.98
49529;BME280;35423;37.320;-121.762;2023-03-14T10:46:47;99457.40;;;21.41;33.10
49529;BME280;35423;37.320;-121.762;2023-03-14T10:51:34;99448.15;;;21.35;33.28
49529;BME280;35423;37.320;-121.762;2023-03-14T10:54:03;99444.35;;;21.27;33.33
49529;BME280;35423;37.320;-121.762;2023-03-14T10:56:34;99434.99;;;21.46;33.45
49529;BME280;35423;37.320;-121.762;2023-03-14T10:58:57;99428.26;;;21.45;33.38
49529;BME280;35423;37.320;-121.762;2023-03-14T11:01:33;99428.32;;;21.11;33.40
49529;BME280;35423;37.320;-121.762;2023-03-14T11:03:53;99417.74;;;21.10;33.40
49529;BME280;35423;37.320;-121.762;2023-03-14T11:06:23;99406.03;;;21.11;33.49
49529;BME280;35423;37.320;-121.762;2023-03-14T11:08:48;99403.31;;;21.32;33.55
49529;BME280;35423;37.320;-121.762;2023-03-14T11:11:14;99399.27;;;21.51;33.51
49529;BME280;35423;37.320;-121.762;2023-03-14T11:13:39;99387.29;;;21.25;33.69
49529;BME280;35423;37.320;-121.762;2023-03-14T11:16:04;99379.69;;;20.98;33.69
49529;BME280;35423;37.320;-121.762;2023-03-14T11:20:55;99353.13;;;21.02;33.90
49529;BME280;35423;37.320;-121.762;2023-03-14T11:23:21;99327.53;;;21.13;34.08
49529;BME280;35423;37.320;-121.762;2023-03-14T11:25:51;99316.75;;;20.97;34.37
49529;BME280;35423;37.320;-121.762;2023-03-14T11:28:18;99315.20;;;20.74;34.64
49529;BME280;35423;37.320;-121.762;2023-03-14T11:30:59;99296.55;;;20.62;34.73
49529;BME280;35423;37.320;-121.762;2023-03-14T11:33:27;99302.03;;;20.46;34.90
49529;BME280;35423;37.320;-121.762;2023-03-14T11:35:57;99290.17;;;20.03;35.37
49529;BME280;35423;37.320;-121.762;2023-03-14T11:40:52;99265.87;;;20.24;35.81
49529;BME280;35423;37.320;-121.762;2023-03-14T11:43:20;99261.63;;;19.89;35.81
49529;BME280;35423;37.320;-121.762;2023-03-14T11:45:52;99246.34;;;20.08;35.81
49529;BME280;35423;37.320;-121.762;2023-03-14T11:48:22;99240.74;;;19.54;35.75
49529;BME280;35423;37.320;-121.762;2023-03-14T11:50:45;99226.97;;;20.06;35.74
49529;BME280;35423;37.320;-121.762;2023-03-14T11:53:15;99219.02;;;20.01;35.76
49529;BME280;35423;37.320;-121.762;2023-03-14T11:55:43;99207.18;;;19.68;35.97
49529;BME280;35423;37.320;-121.762;2023-03-14T11:58:23;99218.22;;;19.98;36.05
49529;BME280;35423;37.320;-121.762;2023-03-14T12:00:50;99225.22;;;20.04;36.03
49529;BME280;35423;37.320;-121.762;2023-03-14T12:03:23;99228.29;;;20.20;35.70
49529;BME280;35423;37.320;-121.762;2023-03-14T12:05:58;99220.68;;;20.28;35.52
49529;BME280;35423;37.320;-121.762;2023-03-14T12:10:47;99202.56;;;20.52;35.14
49529;BME280;35423;37.320;-121.762;2023-03-14T12:13:09;99203.73;;;20.06;35.11
49529;BME280;35423;37.320;-121.762;2023-03-14T12:15:38;99190.73;;;19.81;35.27
49529;BME280;35423;37.320;-121.762;2023-03-14T12:18:03;99199.06;;;20.22;35.38
49529;BME280;35423;37.320;-121.762;2023-03-14T12:20:30;99207.23;;;19.97;35.39
49529;BME280;35423;37.320;-121.762;2023-03-14T12:23:06;99228.07;;;20.16;35.52
49529;BME280;35423;37.320;-121.762;2023-03-14T12:25:36;99243.85;;;20.23;35.46
49529;BME280;35423;37.320;-121.762;2023-03-14T12:30:30;99263.09;;;20.25;36.08
49529;BME280;35423;37.320;-121.762;2023-03-14T12:37:53;99223.70;;;19.69;37.64
49529;BME280;35423;37.320;-121.762;2023-03-14T12:40:24;99216.70;;;19.47;38.22
49529;BME280;35423;37.320;-121.762;2023-03-14T12:42:58;99195.44;;;19.45;38.17
49529;BME280;35423;37.320;-121.762;2023-03-14T12:45:27;99193.08;;;19.43;38.29
49529;BME280;35423;37.320;-121.762;2023-03-14T12:48:06;99170.97;;;19.27;38.57
49529;BME280;35423;37.320;-121.762;2023-03-14T12:50:34;99172.69;;;19.12;38.78
49529;BME280;35423;37.320;-121.762;2023-03-14T12:55:24;99168.21;;;18.99;38.89
49529;BME280;35423;37.320;-121.762;2023-03-14T12:57:52;99160.02;;;18.92;39.08